IN-0036 weather

Public forecast

Using degrees Celsius for public forecast. Weather courtesy of forecast.io.

Closest aviation weather report (METAR) to Pelling Helipad

Closest report is Bagdogra Airport, 37.5 nm (69.5 km) S. Retrieved 2020/08/09 02:30 UTC (33 minutes ago):

VEBD 090230Z 36008KT 4000 BR-RA BKN010 BKN025 FEW025TCU 26/25 Q1003 TEMPO 1500

Closest aviation forecast (TAF) to Pelling Helipad

Forecast is more than 12 hours old.

Closest forecast is Bagdogra Airport, 37.5 nm (69.5 km) S. Retrieved 2020/08/08 06:30 UTC (21 hours ago):

TAF VEBD 080330Z 0806/0818 09005KT 6000 SCT025 SCT100 BKN250 TEMPO 0809/0813 2000 TSRA SCT020 FEW030CB BKN080